Current | Radar | Forecast | Satellite
  National Weather Service:
Special Statement
    

Updated: 7:15 PM CST on January 18, 2018
Observed at Gulf Shores, Alabama
Temperature 32°F
Windchill 27°F
Humidity 63%
Dew Point 20°F
Wind NW at 5 mph
Pressure 30.42 in (Steady)
Conditions Clear
Visibility 10.0 miles
UV 0 out of 16
Clouds Clear (CLR) : -
Yesterday's Maximum 34°F
Yesterday's Minimum 20°F approx.
Yesterday's Heating Degree Days 38 approx.
Sunrise6:46 AM CST
Sunset5:14 PM CST
Moon Rise7:46 AM CST
Moon Set6:50 PM CST
Moon PhaseMoon Phase
Waxing Crescent
Raw METARMETAR KJKA 190115Z AUTO 31004KT 10SM CLR 00/M06 A3042 RMK AO2 T10011064

Orange Beach, AL

Current Radar

Radar Map
Zoom into radar image
Zoom into animated radar image


  National Weather Service:
Special Statement
    

Click here for Marine Information
Scientific forecaster discussion (NWS)

Units: English | Metric

Find the Weather for any City, State or Zipcode, or Country:

U.S. State List | Severe Weather | Tropical Storms | Ski Conditions
United States | Canada | Central America | South America | Asia | Europe | Australia | Africa | Islands

Weather Underground

© Copyright 2018
The Weather Company, LLC